Time;durP1;ratioP1;P1;durP2;ratioP2;P2;SDS_P1;SDS_P2;PMS_P1;PMS_P2;Temp;Humidity;BMP_temperature;BMP_pressure;BME280_temperature;BME280_humidity;BME280_pressure;Samples;Min_cycle;Max_cycle;Signal;HPM_P1;HPM_P2
2023/08/15 00:01:28;;;;;;;1.88;1.13;;;21.50;60.50;;;;;;6126172;23;19917;-64
2023/08/15 00:03:54;;;;;;;;;;;21.40;61.00;;;;;;6101717;23;20223;-63
2023/08/15 00:06:20;;;;;;;1.35;0.73;;;21.50;60.80;;;;;;6149175;23;19952;-63
2023/08/15 00:09:05;;;;;;;1.48;0.98;;;21.50;61.10;;;;;;6126809;23;20202;-63
2023/08/15 00:11:31;;;;;;;1.65;0.82;;;21.40;61.00;;;;;;6099974;23;20022;-63
2023/08/15 00:13:57;;;;;;;;;;;21.50;61.70;;;;;;6126730;23;20347;-63
2023/08/15 00:16:23;;;;;;;2.75;1.63;;;21.40;61.40;;;;;;6126186;23;19917;-63
2023/08/15 00:18:50;;;;;;;0.63;0.63;;;21.40;61.30;;;;;;6100963;23;20006;-63
2023/08/15 00:21:16;;;;;;;0.75;0.60;;;21.40;61.40;;;;;;6125880;23;20097;-63
2023/08/15 00:23:42;;;;;;;;;;;21.40;61.20;;;;;;6127155;23;20440;-62
2023/08/15 00:26:08;;;;;;;1.77;0.88;;;21.40;61.00;;;;;;6149079;23;20004;-63
2023/08/15 00:28:34;;;;;;;0.65;0.52;;;21.40;61.30;;;;;;6126446;23;20033;-63
2023/08/15 00:31:00;;;;;;;;;;;21.40;61.50;;;;;;6126567;23;20018;-63
2023/08/15 00:33:26;;;;;;;0.88;0.65;;;21.40;61.30;;;;;;6126417;23;20004;-63
2023/08/15 00:35:52;;;;;;;0.90;0.70;;;21.40;61.40;;;;;;6100207;23;20021;-63
2023/08/15 00:38:18;;;;;;;;;;;21.30;61.30;;;;;;6127069;23;20018;-63
2023/08/15 00:40:44;;;;;;;3.38;1.58;;;21.30;61.60;;;;;;6125722;23;19909;-63
2023/08/15 00:43:10;;;;;;;1.42;1.30;;;21.30;61.70;;;;;;6126673;23;20433;-63
2023/08/15 00:45:40;;;;;;;1.85;1.00;;;21.30;61.90;;;;;;6099912;23;20014;-63
2023/08/15 00:48:07;;;;;;;1.13;0.80;;;21.20;62.00;;;;;;6100275;23;20010;-63
2023/08/15 00:50:34;;;;;;;1.65;1.15;;;21.20;61.30;;;;;;6125758;23;20010;-63
2023/08/15 00:53:01;;;;;;;1.08;0.82;;;21.20;61.00;;;;;;6100202;23;20014;-63
2023/08/15 00:55:28;;;;;;;1.35;0.80;;;21.10;61.70;;;;;;6125783;23;20006;-63
2023/08/15 00:57:55;;;;;;;1.55;0.77;;;21.10;61.40;;;;;;6100581;23;20013;-63
2023/08/15 01:00:21;;;;;;;1.27;0.88;;;21.10;61.70;;;;;;6125472;23;20126;-63
2023/08/15 01:02:47;;;;;;;1.35;0.98;;;21.00;61.70;;;;;;6126133;23;20021;-63
2023/08/15 01:05:16;;;;;;;1.30;0.90;;;21.00;61.60;;;;;;6125637;23;20010;-62
2023/08/15 01:07:43;;;;;;;0.85;0.73;;;21.00;62.40;;;;;;6126712;23;20022;-63
2023/08/15 01:10:09;;;;;;;2.17;0.80;;;21.00;62.40;;;;;;6125486;23;20424;-63
2023/08/15 01:13:15;;;;;;;0.75;0.60;;;21.00;62.50;;;;;;6125735;23;20021;-63
2023/08/15 01:15:49;;;;;;;0.57;0.52;;;21.00;62.20;;;;;;6099714;23;20061;-63
2023/08/15 01:18:20;;;;;;;1.25;0.98;;;20.90;62.20;;;;;;6100318;23;20029;-63
2023/08/15 01:20:48;;;;;;;1.02;0.60;;;20.80;62.30;;;;;;6099507;23;20022;-63
2023/08/15 01:23:16;;;;;;;1.98;1.05;;;20.70;62.50;;;;;;6099992;23;20023;-63
2023/08/15 01:25:43;;;;;;;2.38;1.40;;;20.70;62.50;;;;;;6099616;23;20378;-63
2023/08/15 01:28:13;;;;;;;1.52;1.20;;;20.70;62.70;;;;;;6100129;23;20014;-63
2023/08/15 01:31:36;;;;;;;0.75;0.52;;;20.70;62.40;;;;;;6099853;23;20432;-63
2023/08/15 01:34:43;;;;;;;3.78;1.23;;;20.70;62.40;;;;;;6125781;23;20024;-63
2023/08/15 01:37:33;;;;;;;3.53;1.70;;;20.70;62.40;;;;;;6125753;23;20089;-63
2023/08/15 01:40:03;;;;;;;0.82;0.70;;;20.70;62.30;;;;;;6125823;23;20010;-63
2023/08/15 01:42:30;;;;;;;1.98;1.33;;;20.70;62.50;;;;;;6099508;23;20036;-63
2023/08/15 01:44:58;;;;;;;0.50;0.50;;;20.60;62.60;;;;;;6125703;23;20024;-62
2023/08/15 01:47:25;;;;;;;1.45;0.63;;;20.50;62.60;;;;;;6125920;23;20376;-63
2023/08/15 01:49:50;;;;;;;1.92;0.90;;;20.40;63.20;;;;;;6099878;23;20384;-63
2023/08/15 01:52:16;;;;;;;1.80;1.42;;;20.40;63.00;;;;;;6125535;23;20018;-63
2023/08/15 01:54:42;;;;;;;;;;;20.40;63.00;;;;;;6126804;23;20014;-63
2023/08/15 01:57:08;;;;;;;1.83;0.90;;;20.40;62.70;;;;;;6125592;23;20300;-63
2023/08/15 01:59:34;;;;;;;;;;;20.40;62.80;;;;;;6126329;23;20077;-63
2023/08/15 02:02:00;;;;;;;1.48;0.60;;;20.40;62.80;;;;;;6125413;23;20334;-62
2023/08/15 02:04:26;;;;;;;0.45;0.40;;;20.30;63.00;;;;;;6125582;23;20022;-62
2023/08/15 02:06:52;;;;;;;;;;;20.30;63.00;;;;;;6126154;23;20021;-63
2023/08/15 02:09:18;;;;;;;1.60;0.90;;;20.30;63.20;;;;;;6125519;23;19949;-63
2023/08/15 02:11:44;;;;;;;2.13;1.50;;;20.30;63.20;;;;;;6125317;23;20491;-63
2023/08/15 02:14:10;;;;;;;0.38;0.30;;;20.20;63.10;;;;;;6099829;23;20025;-62
2023/08/15 02:16:36;;;;;;;0.77;0.47;;;20.20;63.30;;;;;;6125158;23;20021;-63
2023/08/15 02:19:02;;;;;;;1.77;1.13;;;20.20;63.20;;;;;;6125571;23;20010;-63
2023/08/15 02:21:28;;;;;;;2.88;2.15;;;20.10;63.50;;;;;;6125380;23;20097;-63
2023/08/15 02:23:54;;;;;;;;;;;20.00;63.30;;;;;;6100337;23;20014;-63
2023/08/15 02:26:20;;;;;;;1.35;1.05;;;19.90;63.50;;;;;;6125245;23;19924;-62
2023/08/15 02:28:46;;;;;;;0.88;0.50;;;19.90;63.70;;;;;;6125979;23;20025;-63
2023/08/15 02:31:12;;;;;;;;;;;19.80;63.80;;;;;;6099424;23;20471;-62
2023/08/15 02:33:38;;;;;;;1.35;0.80;;;19.80;64.10;;;;;;6125553;23;19979;-63
2023/08/15 02:36:06;;;;;;;0.90;0.60;;;19.70;64.00;;;;;;6125266;23;20021;-63
2023/08/15 02:38:52;;;;;;;1.42;1.05;;;19.60;64.00;;;;;;6101532;23;20013;-63
2023/08/15 02:41:20;;;;;;;1.05;0.68;;;19.60;64.00;;;;;;6126886;23;20428;-63
2023/08/15 02:43:46;;;;;;;1.35;0.75;;;19.60;63.90;;;;;;6127464;23;20014;-62
2023/08/15 02:46:12;;;;;;;;;;;19.50;63.90;;;;;;6127684;23;20048;-63
2023/08/15 02:48:38;;;;;;;0.63;0.40;;;19.50;63.70;;;;;;6127476;23;19983;-63
2023/08/15 02:51:04;;;;;;;1.55;0.68;;;19.50;63.60;;;;;;6126874;23;20021;-62
2023/08/15 02:53:30;;;;;;;;;;;19.50;63.70;;;;;;6128015;23;20006;-63
2023/08/15 02:55:56;;;;;;;1.02;0.70;;;19.50;63.50;;;;;;6126884;23;20076;-63
2023/08/15 02:58:22;;;;;;;0.77;0.47;;;19.50;63.90;;;;;;6127474;23;20010;-63
2023/08/15 03:00:47;;;;;;;1.60;1.30;;;19.50;64.20;;;;;;6100694;23;20344;-62
2023/08/15 03:03:13;;;;;;;1.27;1.05;;;19.50;64.50;;;;;;6127271;23;20010;-62
2023/08/15 03:05:40;;;;;;;0.88;0.43;;;19.50;64.50;;;;;;6126820;23;20301;-63
2023/08/15 03:08:05;;;;;;;;;;;19.60;64.30;;;;;;6127878;23;20042;-63
2023/08/15 03:10:32;;;;;;;1.15;0.68;;;19.50;64.40;;;;;;6149575;23;20292;-63
2023/08/15 03:12:59;;;;;;;1.42;0.95;;;19.60;64.50;;;;;;6101487;23;20052;-63
2023/08/15 03:15:25;;;;;;;0.35;0.32;;;19.60;64.30;;;;;;6100643;23;20030;-63
2023/08/15 03:17:51;;;;;;;1.02;0.70;;;19.60;64.30;;;;;;6127855;23;20025;-63
2023/08/15 03:20:17;;;;;;;;;;;19.60;64.50;;;;;;6126920;23;20018;-62
2023/08/15 03:22:43;;;;;;;0.82;0.57;;;19.50;64.50;;;;;;6150193;23;19979;-63
2023/08/15 03:25:10;;;;;;;1.38;0.82;;;19.50;64.60;;;;;;6126682;23;20057;-63
2023/08/15 03:27:36;;;;;;;1.63;0.82;;;19.50;64.80;;;;;;6101221;23;20081;-63
2023/08/15 03:30:02;;;;;;;;;;;19.50;64.80;;;;;;6101837;23;20036;-63
2023/08/15 03:32:28;;;;;;;0.73;0.57;;;19.40;64.70;;;;;;6127194;23;19980;-62
2023/08/15 03:34:54;;;;;;;0.50;0.40;;;19.40;64.60;;;;;;6127132;23;20014;-62
2023/08/15 03:37:20;;;;;;;1.55;0.88;;;19.30;65.20;;;;;;6100907;23;20018;-62
2023/08/15 03:39:46;;;;;;;1.95;0.98;;;19.30;65.00;;;;;;6127006;23;20022;-62
2023/08/15 03:42:12;;;;;;;0.77;0.50;;;19.20;64.70;;;;;;6126670;23;20021;-63
2023/08/15 03:44:38;;;;;;;3.08;1.13;;;19.20;64.60;;;;;;6126886;23;20064;-63
2023/08/15 03:47:04;;;;;;;;;;;19.20;64.50;;;;;;6101535;23;20093;-63
2023/08/15 03:49:31;;;;;;;1.33;0.82;;;19.10;64.40;;;;;;6126190;23;19916;-63
2023/08/15 03:51:57;;;;;;;0.47;0.40;;;19.10;64.30;;;;;;6126740;23;20030;-63
2023/08/15 03:54:23;;;;;;;0.70;0.60;;;19.10;64.60;;;;;;6126920;23;20014;-63
2023/08/15 03:56:49;;;;;;;1.45;0.73;;;19.10;64.70;;;;;;6100538;23;20014;-63
2023/08/15 03:59:15;;;;;;;1.60;0.95;;;19.10;64.60;;;;;;6126834;23;20080;-63
2023/08/15 04:01:41;;;;;;;0.52;0.40;;;19.10;65.50;;;;;;6100234;23;20014;-63
2023/08/15 04:04:07;;;;;;;1.73;0.88;;;19.20;64.80;;;;;;6126788;23;20014;-62
2023/08/15 04:06:33;;;;;;;1.27;0.98;;;19.20;64.60;;;;;;6125985;23;20044;-63
2023/08/15 04:08:59;;;;;;;0.40;0.40;;;19.10;65.00;;;;;;6100736;23;20014;-63
2023/08/15 04:11:25;;;;;;;1.02;0.65;;;19.00;65.00;;;;;;6126282;23;20022;-63
2023/08/15 04:13:51;;;;;;;0.40;0.40;;;19.00;65.00;;;;;;6126732;23;20437;-63
2023/08/15 04:16:17;;;;;;;;;;;19.00;65.00;;;;;;6126968;23;20113;-62
2023/08/15 04:18:43;;;;;;;1.48;0.82;;;19.10;64.70;;;;;;6149774;23;19908;-62
2023/08/15 04:21:29;;;;;;;4.38;1.65;;;19.00;64.70;;;;;;6125748;23;20383;-63
2023/08/15 04:23:55;;;;;;;1.65;0.85;;;19.00;65.00;;;;;;6126588;23;20076;-63
2023/08/15 04:26:21;;;;;;;0.70;0.50;;;19.00;65.10;;;;;;6125979;23;20018;-62
2023/08/15 04:28:47;;;;;;;0.55;0.50;;;19.00;64.90;;;;;;6126572;23;20029;-63
2023/08/15 04:31:13;;;;;;;;;;;18.90;64.90;;;;;;6126330;23;20093;-63
2023/08/15 04:33:39;;;;;;;0.68;0.60;;;18.90;64.90;;;;;;6126837;23;19996;-62
2023/08/15 04:36:05;;;;;;;1.38;0.75;;;18.90;65.10;;;;;;6126056;23;20018;-62
2023/08/15 04:38:31;;;;;;;;;;;18.90;65.20;;;;;;6127173;23;20032;-62
2023/08/15 04:40:57;;;;;;;1.05;0.75;;;18.90;65.10;;;;;;6125777;23;19992;-62
2023/08/15 04:43:23;;;;;;;1.13;0.63;;;18.90;66.10;;;;;;6100446;23;20444;-63
2023/08/15 04:45:49;;;;;;;1.38;0.80;;;18.90;65.20;;;;;;6125669;23;20018;-63
2023/08/15 04:48:15;;;;;;;0.68;0.50;;;18.90;65.50;;;;;;6100676;23;20324;-63
2023/08/15 04:50:41;;;;;;;1.52;0.63;;;18.90;66.70;;;;;;6125657;23;20084;-63
2023/08/15 04:53:07;;;;;;;0.95;0.60;;;19.00;65.90;;;;;;6126152;23;20010;-63
2023/08/15 04:55:34;;;;;;;;;;;19.00;65.90;;;;;;6100294;23;20010;-63
2023/08/15 04:58:00;;;;;;;2.28;1.38;;;19.00;65.10;;;;;;6100544;23;19916;-62
2023/08/15 05:00:26;;;;;;;0.80;0.45;;;19.10;65.80;;;;;;6075484;23;20442;-63
2023/08/15 05:02:52;;;;;;;0.85;0.60;;;19.10;66.00;;;;;;6126668;23;20017;-63
2023/08/15 05:05:18;;;;;;;;;;;19.20;65.90;;;;;;6100394;23;20014;-63
2023/08/15 05:07:44;;;;;;;1.63;0.85;;;19.20;65.20;;;;;;6100272;23;19920;-63
2023/08/15 05:10:10;;;;;;;0.77;0.57;;;19.30;66.00;;;;;;6099214;23;20076;-62
2023/08/15 05:12:36;;;;;;;;;;;19.30;66.00;;;;;;6100344;23;20034;-63
2023/08/15 05:15:03;;;;;;;1.42;0.68;;;19.40;65.90;;;;;;6100672;23;19920;-63
2023/08/15 05:17:29;;;;;;;2.95;1.30;;;19.40;65.30;;;;;;6099898;23;20313;-63
2023/08/15 05:19:55;;;;;;;0.90;0.38;;;19.50;66.20;;;;;;6075754;23;20025;-62
2023/08/15 05:22:21;;;;;;;1.88;0.50;;;19.50;66.00;;;;;;6125790;23;20018;-63
2023/08/15 05:24:47;;;;;;;1.30;0.80;;;19.60;66.00;;;;;;6125782;23;20069;-62
2023/08/15 05:27:14;;;;;;;1.20;0.90;;;19.60;66.30;;;;;;6125410;23;20024;-63
2023/08/15 05:29:43;;;;;;;2.25;1.13;;;19.70;66.40;;;;;;6100153;23;20046;-63
2023/08/15 05:32:10;;;;;;;2.15;0.85;;;19.70;66.90;;;;;;6125619;23;20014;-62
2023/08/15 05:34:36;;;;;;;2.05;0.70;;;19.80;66.80;;;;;;6099973;23;20014;-62
2023/08/15 05:37:02;;;;;;;1.88;0.88;;;19.80;67.10;;;;;;6099619;23;20017;-62
2023/08/15 05:39:29;;;;;;;1.48;0.98;;;19.90;67.00;;;;;;6125959;23;20017;-62
2023/08/15 05:41:55;;;;;;;0.50;0.40;;;20.00;66.80;;;;;;6125538;23;20014;-63
2023/08/15 05:44:21;;;;;;;0.80;0.52;;;20.10;67.10;;;;;;6125757;23;20021;-63
2023/08/15 05:46:46;;;;;;;;;;;20.10;67.00;;;;;;6126265;23;20028;-63
2023/08/15 05:49:12;;;;;;;1.13;0.95;;;20.20;66.80;;;;;;6148952;23;20282;-62
2023/08/15 05:51:39;;;;;;;1.40;0.82;;;20.30;67.80;;;;;;6099424;23;20030;-62
2023/08/15 05:54:04;;;;;;;;;;;20.30;67.90;;;;;;6126539;23;20086;-63
2023/08/15 05:56:30;;;;;;;2.50;0.73;;;20.40;67.60;;;;;;6125408;23;19917;-63
2023/08/15 05:58:56;;;;;;;1.35;1.05;;;20.40;67.80;;;;;;6100097;23;20014;-63
2023/08/15 06:01:22;;;;;;;1.65;1.05;;;20.50;67.80;;;;;;6098915;23;20014;-63
2023/08/15 06:03:48;;;;;;;;;;;20.60;67.80;;;;;;6100510;23;20325;-63
2023/08/15 06:06:14;;;;;;;1.20;0.68;;;20.60;67.20;;;;;;6125264;23;20004;-63
2023/08/15 06:08:40;;;;;;;1.48;1.08;;;20.70;67.40;;;;;;6125686;23;20017;-63
2023/08/15 06:11:06;;;;;;;;;;;20.80;67.40;;;;;;6125633;23;20431;-63
2023/08/15 06:13:32;;;;;;;1.55;1.20;;;20.80;67.60;;;;;;6125392;23;19940;-63
2023/08/15 06:15:58;;;;;;;;;;;20.90;67.40;;;;;;6099914;23;20041;-63
2023/08/15 06:18:25;;;;;;;3.58;1.45;;;20.90;67.40;;;;;;6099722;23;19937;-63
2023/08/15 06:20:51;;;;;;;2.17;1.00;;;21.10;67.50;;;;;;6124787;23;20028;-63
2023/08/15 06:23:17;;;;;;;1.70;0.85;;;21.10;68.20;;;;;;6125449;23;20014;-63
2023/08/15 06:25:43;;;;;;;;;;;21.20;67.60;;;;;;6125656;23;20060;-63
2023/08/15 06:28:10;;;;;;;1.95;1.20;;;21.30;67.40;;;;;;6125672;23;20330;-63
2023/08/15 06:30:38;;;;;;;0.90;0.77;;;21.40;67.30;;;;;;6099073;23;20040;-63
2023/08/15 06:33:04;;;;;;;0.93;0.60;;;21.40;67.20;;;;;;6099864;23;20010;-63
2023/08/15 06:35:30;;;;;;;1.08;0.65;;;21.50;67.30;;;;;;6099014;23;20057;-63
2023/08/15 06:37:57;;;;;;;2.03;1.20;;;21.70;67.20;;;;;;6125587;23;20041;-63
2023/08/15 06:40:23;;;;;;;2.78;1.38;;;21.80;66.90;;;;;;6124666;23;20021;-63
2023/08/15 06:42:48;;;;;;;;;;;21.90;66.90;;;;;;6100469;23;20021;-63
2023/08/15 06:45:16;;;;;;;1.98;0.88;;;22.00;66.60;;;;;;6124879;23;19980;-63
2023/08/15 06:47:42;;;;;;;1.05;0.77;;;22.10;66.30;;;;;;6099805;23;20025;-63
2023/08/15 06:50:09;;;;;;;1.90;0.95;;;22.10;65.40;;;;;;6125355;23;20017;-63
2023/08/15 06:52:35;;;;;;;2.03;1.15;;;22.30;65.50;;;;;;6125684;23;20018;-63
2023/08/15 06:55:03;;;;;;;1.00;0.68;;;22.40;65.10;;;;;;6099753;23;20065;-63
2023/08/15 06:57:48;;;;;;;1.63;1.10;;;22.50;65.30;;;;;;6125730;23;20041;-63
2023/08/15 07:00:15;;;;;;;0.98;0.55;;;22.80;64.60;;;;;;6124726;23;20073;-63
2023/08/15 07:02:41;;;;;;;3.58;1.65;;;23.00;63.90;;;;;;6099488;23;20026;-63
2023/08/15 07:05:10;;;;;;;1.27;0.40;;;23.30;63.60;;;;;;6125000;23;20455;-64
2023/08/15 07:07:37;;;;;;;1.83;0.65;;;23.50;62.50;;;;;;6125971;23;20014;-63
2023/08/15 07:12:49;;;;;;;1.45;0.68;;;24.00;61.80;;;;;;6103694;23;20033;-63
2023/08/15 07:15:15;;;;;;;;;;;24.40;61.40;;;;;;6099377;23;20014;-63
2023/08/15 07:17:41;;;;;;;1.75;0.90;;;24.60;62.00;;;;;;6125858;23;19916;-63
2023/08/15 07:20:09;;;;;;;1.48;0.50;;;24.90;59.90;;;;;;6087495;23;20101;-64
2023/08/15 07:22:36;;;;;;;2.05;1.20;;;25.20;59.30;;;;;;6096270;23;20446;-63
2023/08/15 07:25:02;;;;;;;4.05;1.98;;;25.50;58.90;;;;;;6071662;23;20097;-63
2023/08/15 07:27:28;;;;;;;0.82;0.60;;;25.90;58.10;;;;;;6097369;23;20082;-63
2023/08/15 07:29:54;;;;;;;1.95;1.67;;;26.20;57.50;;;;;;6072095;23;20016;-63
2023/08/15 07:32:20;;;;;;;1.08;0.95;;;26.60;56.90;;;;;;6097349;23;20023;-64
2023/08/15 07:34:46;;;;;;;1.73;1.48;;;26.90;56.40;;;;;;6097761;23;20404;-64
2023/08/15 07:37:12;;;;;;;2.42;0.80;;;27.20;55.90;;;;;;6096812;23;20017;-64
2023/08/15 07:39:39;;;;;;;2.15;0.70;;;27.60;55.10;;;;;;6072082;23;20011;-64
2023/08/15 07:42:05;;;;;;;1.38;1.02;;;27.90;54.30;;;;;;6071509;23;20014;-63
2023/08/15 07:44:31;;;;;;;2.78;2.13;;;28.30;54.20;;;;;;6047992;23;20524;-64
2023/08/15 07:46:57;;;;;;;1.48;1.13;;;28.70;52.90;;;;;;6097566;23;20029;-64
2023/08/15 07:49:23;;;;;;;2.17;1.67;;;29.10;52.20;;;;;;6071728;23;20010;-64
2023/08/15 07:51:49;;;;;;;2.05;1.45;;;29.50;51.00;;;;;;6097326;23;20380;-63
2023/08/15 07:54:15;;;;;;;0.90;0.80;;;30.10;50.10;;;;;;6097276;23;20017;-65
2023/08/15 07:56:41;;;;;;;0.88;0.60;;;30.50;47.60;;;;;;6097039;23;20135;-64
2023/08/15 07:59:07;;;;;;;1.63;1.00;;;30.90;45.60;;;;;;6097667;23;20021;-65
2023/08/15 08:01:33;;;;;;;0.90;0.60;;;31.30;43.50;;;;;;6096934;23;20073;-65
2023/08/15 08:04:00;;;;;;;2.42;1.55;;;31.80;42.50;;;;;;6071457;23;20057;-65
2023/08/15 08:06:26;;;;;;;0.60;0.60;;;32.20;41.20;;;;;;6096682;23;20028;-67
2023/08/15 08:08:52;;;;;;;1.63;0.98;;;32.70;39.60;;;;;;6097094;23;20011;-67
2023/08/15 08:11:18;;;;;;;0.98;0.60;;;33.00;38.70;;;;;;6070619;23;20018;-65
2023/08/15 08:13:44;;;;;;;1.02;0.93;;;33.50;37.60;;;;;;6097457;23;20010;-65
2023/08/15 08:16:10;;;;;;;3.22;1.88;;;34.00;36.90;;;;;;6071088;23;20029;-67
2023/08/15 08:18:36;;;;;;;1.00;0.85;;;34.40;35.50;;;;;;6097784;23;20011;-67
2023/08/15 08:21:04;;;;;;;2.15;0.93;;;34.80;34.00;;;;;;6114508;23;20028;-67
2023/08/15 08:23:30;;;;;;;1.48;0.90;;;35.30;33.90;;;;;;6118390;23;20037;-67
2023/08/15 08:25:56;;;;;;;1.15;0.70;;;35.80;33.20;;;;;;6066461;23;20026;-67
2023/08/15 08:28:22;;;;;;;0.98;0.70;;;36.30;32.40;;;;;;6117332;23;20010;-67
2023/08/15 08:30:48;;;;;;;1.92;1.35;;;36.80;31.20;;;;;;6090456;23;20314;-66
2023/08/15 08:33:14;;;;;;;1.30;0.82;;;37.20;30.10;;;;;;6117571;23;20033;-67
2023/08/15 08:35:40;;;;;;;1.25;0.90;;;37.60;29.20;;;;;;6117948;23;20061;-67
2023/08/15 08:38:06;;;;;;;1.83;1.17;;;38.10;28.50;;;;;;6092109;23;20190;-66
2023/08/15 08:40:33;;;;;;;1.02;0.88;;;38.60;27.90;;;;;;6117314;23;20498;-66
2023/08/15 08:43:00;;;;;;;1.90;1.35;;;38.90;26.50;;;;;;6091281;23;20029;-66
2023/08/15 08:45:30;;;;;;;1.27;0.93;;;39.40;26.50;;;;;;6091464;23;20043;-67
2023/08/15 08:47:58;;;;;;;9.35;1.85;;;39.70;26.00;;;;;;6092350;23;20022;-68
2023/08/15 08:50:26;;;;;;;2.22;1.10;;;40.20;25.60;;;;;;6091544;23;20013;-68
2023/08/15 08:52:52;;;;;;;0.95;0.85;;;40.70;24.80;;;;;;6116643;23;20021;-67
2023/08/15 08:55:20;;;;;;;1.48;1.23;;;41.00;24.70;;;;;;6114634;23;20057;-68
2023/08/15 08:58:10;;;;;;;2.00;1.27;;;41.60;24.30;;;;;;6091118;23;20010;-68
2023/08/15 09:00:37;;;;;;;2.90;1.33;;;42.00;23.70;;;;;;6089482;23;20009;-68
2023/08/15 09:03:03;;;;;;;1.38;1.23;;;42.40;22.50;;;;;;6117218;23;20010;-67
2023/08/15 09:05:29;;;;;;;0.88;0.80;;;42.70;22.30;;;;;;6116895;23;20013;-67
2023/08/15 09:07:55;;;;;;;1.33;1.20;;;43.00;22.40;;;;;;6091774;23;20014;-67
2023/08/15 09:10:23;;;;;;;1.38;1.27;;;43.50;21.90;;;;;;6116656;23;20064;-68
2023/08/15 09:12:49;;;;;;;1.13;0.85;;;43.80;20.70;;;;;;6117106;23;20021;-66
2023/08/15 09:15:15;;;;;;;1.25;0.90;;;44.30;20.90;;;;;;6091989;23;20018;-67
2023/08/15 09:17:43;;;;;;;2.33;1.60;;;44.80;20.20;;;;;;6116659;23;20432;-66
2023/08/15 09:20:28;;;;;;;1.65;1.27;;;45.10;20.10;;;;;;6116334;23;20022;-66
2023/08/15 09:23:15;;;;;;;2.35;0.90;;;45.30;19.30;;;;;;6116190;23;20068;-68
2023/08/15 09:25:41;;;;;;;0.95;0.95;;;45.70;19.20;;;;;;6091123;23;20006;-67
2023/08/15 09:28:07;;;;;;;1.67;1.40;;;46.10;19.00;;;;;;6117413;23;20014;-67
2023/08/15 09:30:33;;;;;;;18.85;2.53;;;46.50;18.50;;;;;;6089793;23;20014;-66
2023/08/15 09:33:03;;;;;;;1.45;1.23;;;46.80;17.90;;;;;;6089771;23;20021;-68
2023/08/15 09:35:34;;;;;;;1.73;1.63;;;47.10;17.70;;;;;;6090738;23;20006;-66
2023/08/15 09:40:49;;;;;;;1.77;1.55;;;47.70;17.00;;;;;;6115727;23;20029;-67
2023/08/15 09:43:15;;;;;;;1.38;1.23;;;48.10;16.80;;;;;;6090571;23;20037;-67
2023/08/15 09:45:42;;;;;;;2.00;1.70;;;48.30;16.90;;;;;;6090308;23;20045;-66
2023/08/15 09:48:08;;;;;;;1.65;1.52;;;48.60;16.60;;;;;;6116537;23;20009;-67
2023/08/15 09:50:36;;;;;;;2.05;1.83;;;48.90;15.60;;;;;;6090833;23;20017;-66
2023/08/15 09:53:04;;;;;;;2.13;1.52;;;49.20;16.10;;;;;;6090901;23;20009;-66
2023/08/15 09:55:33;;;;;;;2.67;2.28;;;49.60;15.50;;;;;;6090932;23;20032;-68
2023/08/15 09:57:59;;;;;;;2.63;2.05;;;49.90;15.10;;;;;;6091174;23;20017;-67
2023/08/15 10:00:25;;;;;;;2.28;1.90;;;50.40;15.50;;;;;;6090257;23;20006;-67
2023/08/15 10:03:33;;;;;;;2.03;1.83;;;50.80;14.90;;;;;;6116901;23;20445;-67
2023/08/15 10:06:01;;;;;;;2.17;1.83;;;51.00;14.40;;;;;;6115750;23;20313;-66
2023/08/15 10:08:29;;;;;;;2.28;1.67;;;51.40;14.40;;;;;;6090723;23;20104;-67
2023/08/15 10:10:58;;;;;;;1.58;1.48;;;51.80;14.20;;;;;;6116043;23;20097;-69
2023/08/15 10:13:44;;;;;;;2.25;2.00;;;52.20;14.20;;;;;;6117353;23;20006;-67
2023/08/15 10:16:12;;;;;;;2.45;2.13;;;52.30;13.70;;;;;;6116138;23;20498;-68
2023/08/15 10:18:38;;;;;;;2.85;2.55;;;52.60;13.60;;;;;;6116266;23;20337;-68
2023/08/15 10:21:04;;;;;;;2.90;2.35;;;52.80;13.70;;;;;;6068498;23;20452;-67
2023/08/15 10:23:51;;;;;;;3.40;2.60;;;52.90;13.80;;;;;;6061619;23;20015;-66
2023/08/15 10:26:17;;;;;;;3.25;2.65;;;53.10;13.60;;;;;;6060153;23;20018;-67
2023/08/15 10:28:47;;;;;;;3.13;2.72;;;53.60;13.40;;;;;;6061331;23;20445;-67
2023/08/15 10:31:13;;;;;;;2.85;2.58;;;53.80;13.10;;;;;;6061251;23;20073;-67
2023/08/15 10:33:41;;;;;;;3.90;2.85;;;54.00;13.30;;;;;;6086869;23;20392;-68
2023/08/15 10:36:09;;;;;;;3.65;3.35;;;54.30;13.00;;;;;;6087364;23;20322;-68
2023/08/15 10:38:43;;;;;;;2.58;2.28;;;54.30;12.00;;;;;;6087272;23;20011;-67
2023/08/15 10:41:32;;;;;;;3.13;2.70;;;54.40;12.50;;;;;;6062328;23;20336;-68
2023/08/15 10:44:04;;;;;;;3.63;3.33;;;54.80;12.20;;;;;;6062582;23;20010;-68
2023/08/15 10:46:33;;;;;;;3.40;2.97;;;55.00;12.60;;;;;;6060787;23;20070;-67
2023/08/15 10:49:11;;;;;;;3.75;3.45;;;55.00;12.40;;;;;;6086010;23;20024;-67
2023/08/15 10:51:40;;;;;;;3.53;3.22;;;55.40;12.10;;;;;;6085342;23;20023;-68
2023/08/15 10:54:25;;;;;;;4.82;3.95;;;55.60;12.20;;;;;;6086794;23;20478;-67
2023/08/15 10:56:51;;;;;;;4.45;4.05;;;55.60;11.70;;;;;;6061526;23;20089;-68
2023/08/15 10:59:18;;;;;;;4.30;3.90;;;56.10;11.60;;;;;;6088883;23;20081;-67
2023/08/15 11:01:46;;;;;;;4.50;4.10;;;56.50;11.40;;;;;;6086464;23;20026;-67
2023/08/15 11:04:31;;;;;;;4.65;4.25;;;56.70;11.30;;;;;;6089511;23;20015;-67
2023/08/15 11:06:57;;;;;;;4.45;4.05;;;56.80;10.80;;;;;;6088392;23;20018;-66
2023/08/15 11:09:42;;;;;;;4.35;3.95;;;56.80;10.90;;;;;;6088492;23;20014;-68
2023/08/15 11:12:09;;;;;;;4.88;4.47;;;56.70;11.00;;;;;;6088430;23;20070;-67
2023/08/15 11:14:35;;;;;;;4.72;4.32;;;57.00;10.50;;;;;;6088477;23;20014;-67
2023/08/15 11:17:02;;;;;;;4.68;4.28;;;57.00;11.20;;;;;;6087251;23;20061;-66
2023/08/15 11:19:28;;;;;;;5.93;5.43;;;57.60;11.20;;;;;;6090376;23;20452;-66
2023/08/15 11:21:55;;;;;;;6.32;5.82;;;57.80;10.80;;;;;;6091794;23;20352;-66
2023/08/15 11:24:21;;;;;;;5.32;4.93;;;57.90;10.20;;;;;;6092116;23;20092;-66
2023/08/15 11:26:47;;;;;;;5.88;5.38;;;58.00;10.60;;;;;;6117369;23;20100;-68
2023/08/15 11:29:14;;;;;;;4.72;4.32;;;58.00;10.70;;;;;;6118031;23;20021;-66
2023/08/15 11:31:41;;;;;;;7.50;6.90;;;58.00;10.80;;;;;;6091881;23;20104;-66
2023/08/15 11:34:08;;;;;;;6.15;5.63;;;58.50;10.30;;;;;;6068463;23;20488;-67
2023/08/15 11:36:34;;;;;;;6.85;6.35;;;58.50;10.20;;;;;;6117205;23;20356;-67
2023/08/15 11:39:01;;;;;;;6.43;5.93;;;58.60;10.00;;;;;;6092387;23;20014;-66
2023/08/15 11:41:28;;;;;;;6.28;5.78;;;58.90;9.60;;;;;;6117411;23;20472;-67
2023/08/15 11:43:54;;;;;;;8.02;7.40;;;59.00;10.00;;;;;;6092020;23;20018;-68
2023/08/15 11:46:20;;;;;;;7.00;6.50;;;59.30;9.90;;;;;;6091640;23;20416;-68
2023/08/15 11:48:46;;;;;;;6.88;6.28;;;59.30;9.90;;;;;;6118522;23;20024;-67
2023/08/15 11:51:20;;;;;;;6.57;6.07;;;59.40;9.30;;;;;;6117901;23;20018;-67
2023/08/15 11:54:05;;;;;;;7.47;6.97;;;59.60;9.10;;;;;;6092320;23;20045;-68
2023/08/15 11:56:48;;;;;;;7.65;7.10;;;59.70;9.10;;;;;;6118120;23;20014;-68
2023/08/15 11:59:18;;;;;;;7.20;6.70;;;59.80;9.00;;;;;;6092227;23;20090;-67
2023/08/15 12:01:45;;;;;;;7.20;6.70;;;59.80;9.00;;;;;;6091715;23;20024;-66
2023/08/15 12:04:48;;;;;;;7.93;7.43;;;59.80;9.20;;;;;;6092171;23;20435;-67
2023/08/15 12:07:14;;;;;;;7.50;7.00;;;60.30;9.00;;;;;;6116821;23;20072;-66
2023/08/15 12:09:41;;;;;;;8.00;7.50;;;60.40;9.00;;;;;;6116313;23;20436;-66
2023/08/15 12:12:07;;;;;;;8.05;7.45;;;60.60;9.20;;;;;;6116686;23;20014;-67
2023/08/15 12:14:33;;;;;;;8.45;7.95;;;60.50;9.30;;;;;;6118276;23;20018;-67
2023/08/15 12:16:59;;;;;;;8.18;7.57;;;60.70;8.90;;;;;;6116162;23;20479;-66
2023/08/15 12:19:25;;;;;;;8.73;8.13;;;60.70;8.80;;;;;;6117602;23;20017;-66
2023/08/15 12:21:52;;;;;;;8.43;7.93;;;60.70;8.70;;;;;;6116494;23;20025;-66
2023/08/15 12:24:19;;;;;;;8.57;7.97;;;60.60;8.40;;;;;;6117011;23;20014;-66
2023/08/15 12:26:45;;;;;;;9.07;8.48;;;60.60;8.90;;;;;;6116041;23;20026;-66
2023/08/15 12:29:11;;;;;;;8.70;8.15;;;60.80;8.70;;;;;;6117248;23;20344;-67
2023/08/15 12:31:37;;;;;;;10.02;9.43;;;61.00;9.00;;;;;;6116928;23;20458;-66
2023/08/15 12:34:04;;;;;;;10.82;10.23;;;61.40;8.90;;;;;;6117353;23;20081;-67
2023/08/15 12:36:30;;;;;;;10.85;10.25;;;61.30;9.00;;;;;;6117063;23;20026;-66
2023/08/15 12:38:56;;;;;;;9.00;8.40;;;61.60;8.80;;;;;;6118656;23;20010;-66
2023/08/15 12:41:22;;;;;;;11.43;10.73;;;61.70;8.70;;;;;;6116913;23;20018;-67
2023/08/15 12:43:48;;;;;;;10.10;9.50;;;61.80;8.20;;;;;;6117515;23;20018;-68
2023/08/15 12:46:14;;;;;;;11.25;10.50;;;61.80;8.40;;;;;;6090651;23;20369;-67
2023/08/15 12:48:40;;;;;;;11.85;11.15;;;61.90;8.00;;;;;;6117477;23;20010;-66
2023/08/15 12:51:06;;;;;;;11.57;10.88;;;62.30;8.10;;;;;;6116409;23;20029;-67
2023/08/15 12:53:32;;;;;;;11.43;10.73;;;62.10;8.10;;;;;;6117034;23;20262;-67
2023/08/15 12:55:58;;;;;;;11.77;11.07;;;62.30;8.40;;;;;;6117058;23;20435;-66
2023/08/15 12:58:24;;;;;;;11.95;11.25;;;62.30;8.20;;;;;;6066756;23;20010;-67
2023/08/15 13:00:50;;;;;;;12.77;12.07;;;62.30;8.50;;;;;;6116898;23;20050;-67
2023/08/15 13:03:18;;;;;;;13.43;12.73;;;62.50;8.40;;;;;;6091262;23;20017;-67
2023/08/15 13:05:44;;;;;;;12.88;12.15;;;62.50;8.00;;;;;;6090757;23;20436;-67